Latest Observation

42 Stations

15 Minute Data | America/Los_Angeles
as of 9/4/26 9:37 PM PDT
Station Date Time Temp (°F) RH (%) Dew Pt (°F) Wind Spd (mph) Wind Dir (°) Wind Gust (mph) Latest Rain (In) Daily Rain (In) Daily Min Temp (°F) Daily Max Temp (°F) Daily Max Wind (mph)
Elk Mt. Farm 8/13/26 1500 85.6   7.4 - - - - - - - 51.4   1.1 85.6   7.4 -
Upper Lake 9/4/26 2130 59.2   2.0 72   11 50.1   1.9 2.8 WNW | 296 7.6   1.4 0.00 0.00 42.1   14.7 75.4   7.1 17.3   1.7
Scotts Valley 9/4/26 2130 56.2   0.5 76   8 48.8   3.2 0.7 W | 262 5.2   2.6 0.00 0.00 34.8   21.5 77.3   8.0 12.2   1.0
Scotts Valley-South (Bella Vista) 9/4/26 2130 57.0   0.6 69   9 47.1   2.6 2.8 W | 275 6.8   2.2 0.00 0.00 38.8   17.4 75.6   7.0 12.8   0.9
Kelseyville 9/4/26 2130 57.9   0.2 72   8 48.9   2.5 1.8 SW | 218 3.9   3.9 0.00 0.00 41.1   15.9 74.8   4.0 14.2   3.3
Kelseyville Remote 9/4/26 2130 59.5   0.9 60   9 45.6   2.8 - - - 0.00 0.00 42.2   15.6 75.6   5.5 -
Kelseyville (Clark Drive) 9/4/26 2130 53.1   3.2 - - - - - 0.00 0.00 41.2   14.7 75.9   5.1 -
Kelsey Bench (Oaklea) 9/4/26 2130 56.4   0.7 73   18 47.8   5.1 3.1 SSW | 207 4.6   0.2 0.00 0.00 43.7   11.8 74.0   5.8 15.4   0.6
Smith Lane (Kelseyville-South) 9/4/26 2130 52.8   3.7 83   8 47.8   6.2 1.2 S | 177 3.2   0.0 0.00 0.01 39.0   17.5 77.4   6.6 13.3   1.7
Bell Hill-West 9/4/26 2130 56.5   0.2 82   15 51.2   4.5 1.2 SW | 229 4.4   0.0 0.00 0.00 41.1   15.0 74.6   4.9 15.8   0.3
High Valley Ridgeline (Brassfield) 9/3/26 1430 64.3   0.5 52   2 46.4   1.6 12.2 WSW | 242 17.9   7.4 0.00 0.01 55.0   3.7 66.3   0.1 20.5   5.3
Wight Way (Adobe Creek) 9/4/26 2100 56.8   0.9 73   18 48.4   5.1 1.0 W | 269 4.1   1.6 0.00 0.01 39.4   16.1 83.2   6.3 14.0   3.8
Ridgeline Top (Brassfield) 9/3/26 1430 66.6   0.4 - - - - - - - 54.8   3.7 69.7   1.1 -
Ridgeline Low (Brassfield) 9/3/26 1430 66.8   0.7 - - - - - - - 56.8   4.6 67.8   0.9 -
Long Valley (Shannon) 6/29/26 1400 84.9   4.6 25   1 44.9   3.2 2.9 ENE | 75 10.2   0.4 0.00 0.00 46.4   0.4 86.9   6.5 13.7   1.8
High Valley Winery 9/3/26 1430 65.6   2.0 49   1 45.9   1.2 9.6 WSW | 238 17.0   7.0 0.00 0.01 57.3   4.2 67.3   2.2 17.0   1.1
Round Mtn Rd. 9/4/26 0630 42.7   16.1 - - - - - - - 42.4   14.6 51.6   7.2 -
Circle O 9/4/26 2130 56.3   2.4 - - - - - - - 38.9   14.8 73.3   3.6 -
Robertsbridge Vineyards 9/4/26 2130 55.0   0.0 75   14 47.3   4.8 - - - - - 38.7   16.0 76.2   5.5 -
Urgency Vineyard 9/4/26 2130 56.7   2.4 68   17 46.2   3.7 3.8 SSW | 213 6.9   2.1 0.00 0.00 43.2   11.2 74.3   5.6 12.0   1.4
Red Hills (Beckstoffer) 9/4/26 2130 57.5   2.8 70   17 47.7   3.3 - - - 0.00 0.00 41.4   13.2 75.3   6.4 -
Winters (Shannon) 9/4/26 2130 56.6   2.6 66   16 45.2   3.3 2.6 WSW | 248 7.7   0.2 0.00 0.00 37.1   12.9 72.6   5.1 14.9   1.4
Secret Pond (Shannon) 9/4/26 2130 56.3   3.3 66   17 44.9   2.8 4.2 NW | 321 7.7   1.2 0.00 0.00 41.4   10.4 72.1   4.9 16.4   1.9
Rolling Knolls (Shannon) 9/4/26 2130 57.7   1.0 66   12 46.3   3.5 1.1 ENE | 62 3.9   1.2 0.00 0.00 44.8   6.1 74.4   6.2 13.0   2.8
Lower Lake 9/4/26 2130 59.4   2.9 64   17 47.3   3.4 2.9 WNW | 282 6.5   2.8 0.00 0.00 47.0   5.8 73.2   4.9 14.5   3.4
Adamson Ranch 9/4/26 2130 54.8   3.9 74   0 46.9   3.9 1.1 SSW | 201 3.9   2.2 0.00 0.00 40.6   16.3 76.4   5.5 13.8   4.2
Middletown (Diamond D) 9/4/26 2130 59.9   1.0 71   8 50.4   3.9 0.0 N | 0 0.0   0.0 0.00 0.00 42.1   15.5 75.5   6.9 14.8   2.5
Middletown-West (Domaine Helena) 9/4/26 2130 58.6   1.3 71   6 49.4   3.3 4.1 SSW | 207 7.6   2.8 0.00 0.00 39.0   16.7 76.4   8.5 18.1   2.1
Middletown-South 9/4/26 2130 59.2   1.0 70   5 49.4   2.8 0.7 SSE | 155 4.6   2.7 0.00 0.00 44.0   12.8 76.0   7.2 18.2   0.4
Jim Davis (Langtry) 9/4/26 2130 59.1   1.7 68   9 48.7   4.9 0.1 WNW | 298 0.7   8.6 0.00 0.00 46.0   12.0 76.0   7.0 15.5   4.5
Napa Valley Basin 9/4/26 2130 54.6   9.0 71   2 45.6   7.7 0.8 ENE | 77 2.3   4.2 0.00 0.00 39.4   14.8 78.3   7.9 14.9   4.9
Lower Bohn 9/4/26 2130 55.2   6.8 63   10 42.7   10.4 1.0 SE | 125 2.4   7.7 0.00 0.00 36.9   20.7 77.8   7.9 16.2   3.7
Upper Bohn-North 9/4/26 2130 56.2   5.9 70   2 46.5   6.2 1.5 SSE | 152 2.3   4.5 0.00 0.00 44.8   11.6 79.2   8.0 16.7   2.7
Snell Peak Blk#9 9/4/26 2130 59.2   2.3 64   8 47.0   5.4 2.0 SSW | 212 2.8   6.5 0.00 0.00 48.2   7.6 77.4   10.0 13.5   3.1
Coyote Lake West 9/4/26 2130 57.7   4.9 67   5 46.8   6.6 0.6 W | 269 2.3   8.1 0.00 0.00 45.0   10.2 77.1   8.6 14.1   3.0
Coyote Lake Northeast 9/4/26 2130 58.0   5.0 69   3 47.8   5.8 - - - - - 46.4   9.4 77.9   8.0 -
Coyote Lake East 9/4/26 2130 55.5   8.3 73   4 47.1   6.6 - - - - - 40.7   11.4 78.4   8.4 -
Morgan Valley 9/4/26 2130 58.4   4.1 73   19 49.7   2.1 1.9 SSE | 157 3.8   15.6 0.00 0.00 48.1   3.5 70.4   8.4 16.0   6.7
Mine Pit North 9/4/26 2130 58.5 65 46.8 4.2 SW | 236 6.0 - - 46.2 77.5 20.1
Mine Pit South 9/4/26 2130 59.5   3.0 62   14 46.6   2.5 3.9 WSW | 246 6.7   7.5 0.00 0.00 50.2   2.3 76.8   11.4 21.6   4.1
Cow Mountain 9/4/26 2130 49.4   2.3 - - 8.2 WNW | 291 14.5   9.6 0.00 0.01 43.6   3.3 60.5   7.1 25.0   1.5
Ukiah-SE (Ruddick) 9/4/26 2130 59.7   0.6 68   14 49.0   4.4 5.7 N | 2 8.1   4.6 0.00 0.00 42.1   14.8 75.8   7.1 14.2   2.4
Max     59.9 83 51.2 8.2 - 14.5 0.00 0.01 50.2 83.2 25.0
Avg     57.0 70 47.5 2.3 - 5.0 0.00 - - - -
Min     49.4 60 42.7 0.0 - 0.0 0.00 0.00 34.8 60.5 12.0